sensor_id;sensor_type;location;lat;lon;timestamp;pressure;altitude;pressure_sealevel;temperature;humidity
78117;BME280;69042;59.120;37.904;2023-05-07T00:00:38;101053.16;;;2.29;51.38
78117;BME280;69042;59.120;37.904;2023-05-07T00:03:06;101054.91;;;2.31;51.63
78117;BME280;69042;59.120;37.904;2023-05-07T00:05:32;101045.41;;;2.29;51.57
78117;BME280;69042;59.120;37.904;2023-05-07T00:07:58;101066.06;;;2.31;51.66
78117;BME280;69042;59.120;37.904;2023-05-07T00:10:25;101064.34;;;2.30;51.82
78117;BME280;69042;59.120;37.904;2023-05-07T00:12:51;101060.03;;;2.27;51.92
78117;BME280;69042;59.120;37.904;2023-05-07T00:15:18;101063.44;;;2.25;51.89
78117;BME280;69042;59.120;37.904;2023-05-07T00:17:44;101071.13;;;2.20;52.15
78117;BME280;69042;59.120;37.904;2023-05-07T00:20:10;101068.56;;;2.17;51.88
78117;BME280;69042;59.120;37.904;2023-05-07T00:22:37;101081.44;;;2.14;52.67
78117;BME280;69042;59.120;37.904;2023-05-07T00:25:04;101077.97;;;2.12;52.13
78117;BME280;69042;59.120;37.904;2023-05-07T00:27:31;101067.59;;;2.06;51.86
78117;BME280;69042;59.120;37.904;2023-05-07T00:29:57;101066.69;;;2.02;52.76
78117;BME280;69042;59.120;37.904;2023-05-07T00:32:23;101079.56;;;1.98;52.20
78117;BME280;69042;59.120;37.904;2023-05-07T00:34:50;101077.81;;;1.95;52.61
78117;BME280;69042;59.120;37.904;2023-05-07T00:37:16;101096.69;;;1.90;53.10
78117;BME280;69042;59.120;37.904;2023-05-07T00:39:43;101073.44;;;1.85;52.73
78117;BME280;69042;59.120;37.904;2023-05-07T00:42:09;101081.16;;;1.83;53.03
78117;BME280;69042;59.120;37.904;2023-05-07T00:44:35;101083.72;;;1.80;53.03
78117;BME280;69042;59.120;37.904;2023-05-07T00:47:03;101086.25;;;1.79;53.52
78117;BME280;69042;59.120;37.904;2023-05-07T00:49:37;101081.94;;;1.76;53.77
78117;BME280;69042;59.120;37.904;2023-05-07T00:52:06;101088.88;;;1.80;53.10
78117;BME280;69042;59.120;37.904;2023-05-07T00:54:34;101092.31;;;1.82;53.71
78117;BME280;69042;59.120;37.904;2023-05-07T00:57:02;101104.38;;;1.86;53.89
78117;BME280;69042;59.120;37.904;2023-05-07T00:59:31;101088.06;;;1.89;53.64
78117;BME280;69042;59.120;37.904;2023-05-07T01:01:58;101089.81;;;1.90;54.04
78117;BME280;69042;59.120;37.904;2023-05-07T01:04:25;101076.03;;;1.85;54.10
78117;BME280;69042;59.120;37.904;2023-05-07T01:06:53;101089.78;;;1.87;54.54
78117;BME280;69042;59.120;37.904;2023-05-07T01:09:23;101082.03;;;1.85;53.74
78117;BME280;69042;59.120;37.904;2023-05-07T01:11:52;101075.13;;;1.83;54.55
78117;BME280;69042;59.120;37.904;2023-05-07T01:14:19;101093.13;;;1.80;54.29
78117;BME280;69042;59.120;37.904;2023-05-07T01:16:47;101083.69;;;1.79;54.60
78117;BME280;69042;59.120;37.904;2023-05-07T01:19:17;101077.63;;;1.75;54.87
78117;BME280;69042;59.120;37.904;2023-05-07T01:21:48;101084.47;;;1.72;54.96
78117;BME280;69042;59.120;37.904;2023-05-07T01:24:17;101088.75;;;1.70;55.06
78117;BME280;69042;59.120;37.904;2023-05-07T01:26:44;101088.72;;;1.68;54.99
78117;BME280;69042;59.120;37.904;2023-05-07T01:29:13;101087.84;;;1.66;55.70
78117;BME280;69042;59.120;37.904;2023-05-07T01:31:41;101079.25;;;1.62;55.73
78117;BME280;69042;59.120;37.904;2023-05-07T01:34:09;101094.66;;;1.59;55.51
78117;BME280;69042;59.120;37.904;2023-05-07T01:36:37;101102.38;;;1.58;57.27
78117;BME280;69042;59.120;37.904;2023-05-07T01:39:05;101087.72;;;1.52;55.42
78117;BME280;69042;59.120;37.904;2023-05-07T01:41:32;101090.25;;;1.48;55.79
78117;BME280;69042;59.120;37.904;2023-05-07T01:43:59;101090.22;;;1.44;55.62
78117;BME280;69042;59.120;37.904;2023-05-07T01:46:26;101094.47;;;1.44;56.41
78117;BME280;69042;59.120;37.904;2023-05-07T01:48:52;101089.38;;;1.47;56.03
78117;BME280;69042;59.120;37.904;2023-05-07T01:51:19;101098.88;;;1.53;56.08
78117;BME280;69042;59.120;37.904;2023-05-07T01:53:46;101092.13;;;1.62;56.11
78117;BME280;69042;59.120;37.904;2023-05-07T01:56:18;101094.84;;;1.76;56.43
78117;BME280;69042;59.120;37.904;2023-05-07T01:58:45;101095.84;;;1.95;57.26
78117;BME280;69042;59.120;37.904;2023-05-07T02:01:14;101099.44;;;2.13;56.67
78117;BME280;69042;59.120;37.904;2023-05-07T02:03:42;101108.16;;;2.27;56.88
78117;BME280;69042;59.120;37.904;2023-05-07T02:06:15;101116.84;;;2.40;56.79
78117;BME280;69042;59.120;37.904;2023-05-07T02:08:41;101104.88;;;2.48;56.57
78117;BME280;69042;59.120;37.904;2023-05-07T02:11:08;101111.81;;;2.57;57.63
78117;BME280;69042;59.120;37.904;2023-05-07T02:13:36;101119.59;;;2.60;57.54
78117;BME280;69042;59.120;37.904;2023-05-07T02:16:02;101111.81;;;2.55;57.25
78117;BME280;69042;59.120;37.904;2023-05-07T02:18:28;101103.13;;;2.45;57.73
78117;BME280;69042;59.120;37.904;2023-05-07T02:20:55;101085.00;;;2.30;57.47
78117;BME280;69042;59.120;37.904;2023-05-07T02:23:21;101088.28;;;2.15;58.42
78117;BME280;69042;59.120;37.904;2023-05-07T02:25:48;101093.34;;;2.04;57.51
78117;BME280;69042;59.120;37.904;2023-05-07T02:28:14;101091.56;;;1.96;58.31
78117;BME280;69042;59.120;37.904;2023-05-07T02:31:10;101080.41;;;1.94;58.87
78117;BME280;69042;59.120;37.904;2023-05-07T02:33:36;101091.56;;;1.96;58.60
78117;BME280;69042;59.120;37.904;2023-05-07T02:36:10;101095.91;;;2.00;59.33
78117;BME280;69042;59.120;37.904;2023-05-07T02:38:43;101081.34;;;2.05;58.85
78117;BME280;69042;59.120;37.904;2023-05-07T02:41:10;101083.09;;;2.09;59.01
78117;BME280;69042;59.120;37.904;2023-05-07T02:43:36;101086.56;;;2.16;58.60
78117;BME280;69042;59.120;37.904;2023-05-07T02:46:04;101089.22;;;2.23;58.10
78117;BME280;69042;59.120;37.904;2023-05-07T02:48:32;101087.56;;;2.33;59.37
78117;BME280;69042;59.120;37.904;2023-05-07T02:50:59;101085.03;;;2.41;58.99
78117;BME280;69042;59.120;37.904;2023-05-07T02:53:26;101080.81;;;2.49;58.67
78117;BME280;69042;59.120;37.904;2023-05-07T02:55:53;101086.03;;;2.58;59.19
78117;BME280;69042;59.120;37.904;2023-05-07T02:58:20;101082.63;;;2.65;58.56
78117;BME280;69042;59.120;37.904;2023-05-07T03:00:46;101083.53;;;2.70;58.06
78117;BME280;69042;59.120;37.904;2023-05-07T03:03:25;101085.31;;;2.79;59.13
78117;BME280;69042;59.120;37.904;2023-05-07T03:05:52;101082.72;;;2.85;58.76
78117;BME280;69042;59.120;37.904;2023-05-07T03:08:18;101080.19;;;2.91;58.78
78117;BME280;69042;59.120;37.904;2023-05-07T03:10:44;101079.34;;;2.97;59.05
78117;BME280;69042;59.120;37.904;2023-05-07T03:13:11;101087.13;;;3.00;59.28
78117;BME280;69042;59.120;37.904;2023-05-07T03:15:37;101091.44;;;3.04;58.78
78117;BME280;69042;59.120;37.904;2023-05-07T03:18:03;101082.84;;;3.05;58.12
78117;BME280;69042;59.120;37.904;2023-05-07T03:20:30;101083.72;;;3.12;58.46
78117;BME280;69042;59.120;37.904;2023-05-07T03:22:57;101088.84;;;3.06;58.66
78117;BME280;69042;59.120;37.904;2023-05-07T03:25:23;101082.78;;;2.96;59.41
78117;BME280;69042;59.120;37.904;2023-05-07T03:27:50;101087.94;;;2.91;59.41
78117;BME280;69042;59.120;37.904;2023-05-07T03:30:19;101093.94;;;2.84;59.53
78117;BME280;69042;59.120;37.904;2023-05-07T03:32:46;101091.31;;;2.80;59.72
78117;BME280;69042;59.120;37.904;2023-05-07T03:35:12;101092.16;;;2.73;59.85
78117;BME280;69042;59.120;37.904;2023-05-07T03:37:39;101092.97;;;2.71;59.88
78117;BME280;69042;59.120;37.904;2023-05-07T03:40:06;101088.69;;;2.69;59.58
78117;BME280;69042;59.120;37.904;2023-05-07T03:42:41;101090.34;;;2.65;58.97
78117;BME280;69042;59.120;37.904;2023-05-07T03:45:08;101104.09;;;2.63;59.97
78117;BME280;69042;59.120;37.904;2023-05-07T03:47:35;101106.69;;;2.61;59.95
78117;BME280;69042;59.120;37.904;2023-05-07T03:50:01;101099.81;;;2.62;59.81
78117;BME280;69042;59.120;37.904;2023-05-07T03:52:28;101117.00;;;2.63;59.64
78117;BME280;69042;59.120;37.904;2023-05-07T03:54:58;101097.22;;;2.63;59.92
78117;BME280;69042;59.120;37.904;2023-05-07T03:57:24;101103.31;;;2.68;59.90
78117;BME280;69042;59.120;37.904;2023-05-07T03:59:51;101105.06;;;2.73;59.49
78117;BME280;69042;59.120;37.904;2023-05-07T04:02:18;101108.50;;;2.76;59.39
78117;BME280;69042;59.120;37.904;2023-05-07T04:04:44;101105.06;;;2.79;59.86
78117;BME280;69042;59.120;37.904;2023-05-07T04:07:10;101108.56;;;2.84;60.04
78117;BME280;69042;59.120;37.904;2023-05-07T04:09:40;101113.75;;;2.88;59.26
78117;BME280;69042;59.120;37.904;2023-05-07T04:12:07;101110.31;;;2.94;59.53
78117;BME280;69042;59.120;37.904;2023-05-07T04:14:34;101107.75;;;2.99;59.39
78117;BME280;69042;59.120;37.904;2023-05-07T04:17:01;101107.81;;;3.06;59.21
78117;BME280;69042;59.120;37.904;2023-05-07T04:19:29;101106.97;;;3.13;59.48
78117;BME280;69042;59.120;37.904;2023-05-07T04:21:56;101112.16;;;3.20;59.91
78117;BME280;69042;59.120;37.904;2023-05-07T04:24:22;101098.41;;;3.22;58.89
78117;BME280;69042;59.120;37.904;2023-05-07T04:26:49;101113.06;;;3.28;59.12
78117;BME280;69042;59.120;37.904;2023-05-07T04:29:17;101103.59;;;3.34;59.29
78117;BME280;69042;59.120;37.904;2023-05-07T04:31:44;101107.06;;;3.41;58.87
78117;BME280;69042;59.120;37.904;2023-05-07T04:34:11;101117.44;;;3.50;59.31
78117;BME280;69042;59.120;37.904;2023-05-07T04:36:38;101110.59;;;3.63;58.91
78117;BME280;69042;59.120;37.904;2023-05-07T04:39:10;101115.78;;;3.77;58.21
78117;BME280;69042;59.120;37.904;2023-05-07T04:41:37;101113.22;;;3.86;57.92
78117;BME280;69042;59.120;37.904;2023-05-07T04:44:04;101116.69;;;3.97;58.23
78117;BME280;69042;59.120;37.904;2023-05-07T04:46:32;101130.47;;;4.06;58.17
78117;BME280;69042;59.120;37.904;2023-05-07T04:48:59;101121.00;;;4.11;57.65
78117;BME280;69042;59.120;37.904;2023-05-07T04:51:25;101113.25;;;4.22;57.24
78117;BME280;69042;59.120;37.904;2023-05-07T04:53:51;101113.25;;;4.32;57.19
78117;BME280;69042;59.120;37.904;2023-05-07T04:56:18;101122.72;;;4.43;57.25
78117;BME280;69042;59.120;37.904;2023-05-07T04:58:46;101116.69;;;4.51;56.81
78117;BME280;69042;59.120;37.904;2023-05-07T05:01:12;101117.53;;;4.59;56.41
78117;BME280;69042;59.120;37.904;2023-05-07T05:03:39;101113.19;;;4.69;55.76
78117;BME280;69042;59.120;37.904;2023-05-07T05:06:06;101125.25;;;4.76;55.23
78117;BME280;69042;59.120;37.904;2023-05-07T05:08:34;101126.13;;;4.78;55.10
78117;BME280;69042;59.120;37.904;2023-05-07T05:11:02;101115.78;;;4.78;54.65
78117;BME280;69042;59.120;37.904;2023-05-07T05:13:29;101121.81;;;4.80;54.39
78117;BME280;69042;59.120;37.904;2023-05-07T05:15:56;101121.81;;;4.82;54.51
78117;BME280;69042;59.120;37.904;2023-05-07T05:18:23;101128.72;;;4.85;54.01
78117;BME280;69042;59.120;37.904;2023-05-07T05:20:51;101131.28;;;4.89;54.33
78117;BME280;69042;59.120;37.904;2023-05-07T05:23:18;101125.25;;;4.93;54.17
78117;BME280;69042;59.120;37.904;2023-05-07T05:25:45;101132.97;;;4.99;53.89
78117;BME280;69042;59.120;37.904;2023-05-07T05:28:13;101130.38;;;5.04;53.94
78117;BME280;69042;59.120;37.904;2023-05-07T05:30:39;101131.22;;;5.08;53.64
78117;BME280;69042;59.120;37.904;2023-05-07T05:33:06;101120.00;;;5.10;53.55
78117;BME280;69042;59.120;37.904;2023-05-07T05:35:33;101126.03;;;5.14;53.15
78117;BME280;69042;59.120;37.904;2023-05-07T05:38:03;101124.28;;;5.20;53.39
78117;BME280;69042;59.120;37.904;2023-05-07T05:40:29;101137.22;;;5.30;53.10
78117;BME280;69042;59.120;37.904;2023-05-07T05:42:56;101144.09;;;5.37;52.89
78117;BME280;69042;59.120;37.904;2023-05-07T05:45:23;101131.09;;;5.43;52.67
78117;BME280;69042;59.120;37.904;2023-05-07T05:47:50;101119.84;;;5.52;52.58
78117;BME280;69042;59.120;37.904;2023-05-07T05:50:18;101121.50;;;5.60;52.48
78117;BME280;69042;59.120;37.904;2023-05-07T05:52:44;101141.34;;;5.71;52.05
78117;BME280;69042;59.120;37.904;2023-05-07T05:55:11;101134.38;;;5.79;51.88
78117;BME280;69042;59.120;37.904;2023-05-07T05:57:38;101127.41;;;5.89;51.74
78117;BME280;69042;59.120;37.904;2023-05-07T06:00:05;101131.66;;;6.00;51.83
78117;BME280;69042;59.120;37.904;2023-05-07T06:02:33;101123.78;;;6.14;51.84
78117;BME280;69042;59.120;37.904;2023-05-07T06:05:00;101138.38;;;6.29;51.54
78117;BME280;69042;59.120;37.904;2023-05-07T06:07:26;101139.16;;;6.42;51.60
78117;BME280;69042;59.120;37.904;2023-05-07T06:09:52;101136.38;;;6.57;50.79
78117;BME280;69042;59.120;37.904;2023-05-07T06:12:20;101140.59;;;6.74;50.97
78117;BME280;69042;59.120;37.904;2023-05-07T06:14:47;101134.34;;;6.92;50.68
78117;BME280;69042;59.120;37.904;2023-05-07T06:17:14;101142.84;;;7.06;50.34
78117;BME280;69042;59.120;37.904;2023-05-07T06:19:41;101135.84;;;7.11;49.16
78117;BME280;69042;59.120;37.904;2023-05-07T06:22:09;101131.53;;;7.12;49.34
78117;BME280;69042;59.120;37.904;2023-05-07T06:24:36;101150.53;;;7.18;48.63
78117;BME280;69042;59.120;37.904;2023-05-07T06:27:06;101146.97;;;7.24;49.16
78117;BME280;69042;59.120;37.904;2023-05-07T06:29:33;101144.31;;;7.30;49.04
78117;BME280;69042;59.120;37.904;2023-05-07T06:32:11;101133.81;;;7.36;48.52
78117;BME280;69042;59.120;37.904;2023-05-07T06:34:40;101139.78;;;7.46;48.47
78117;BME280;69042;59.120;37.904;2023-05-07T06:37:07;101146.72;;;7.44;48.27
78117;BME280;69042;59.120;37.904;2023-05-07T06:39:47;101140.63;;;7.45;47.59
78117;BME280;69042;59.120;37.904;2023-05-07T06:42:14;101143.25;;;7.45;47.14
78117;BME280;69042;59.120;37.904;2023-05-07T06:44:42;101138.13;;;7.39;47.10
78117;BME280;69042;59.120;37.904;2023-05-07T06:47:12;101137.28;;;7.37;46.82
78117;BME280;69042;59.120;37.904;2023-05-07T06:49:39;101149.56;;;7.24;46.64
78117;BME280;69042;59.120;37.904;2023-05-07T06:52:06;101146.25;;;7.11;46.89
78117;BME280;69042;59.120;37.904;2023-05-07T06:54:34;101138.44;;;7.13;46.88
78117;BME280;69042;59.120;37.904;2023-05-07T06:57:01;101156.56;;;7.19;47.09
78117;BME280;69042;59.120;37.904;2023-05-07T06:59:30;101142.56;;;7.29;47.12
78117;BME280;69042;59.120;37.904;2023-05-07T07:02:00;101124.19;;;7.43;46.98
78117;BME280;69042;59.120;37.904;2023-05-07T07:04:27;101134.31;;;7.64;47.27
78117;BME280;69042;59.120;37.904;2023-05-07T07:07:01;101135.75;;;7.87;47.22
78117;BME280;69042;59.120;37.904;2023-05-07T07:09:28;101133.84;;;7.98;46.36
78117;BME280;69042;59.120;37.904;2023-05-07T07:11:56;101138.22;;;7.96;45.85
78117;BME280;69042;59.120;37.904;2023-05-07T07:14:25;101151.28;;;7.93;46.20
78117;BME280;69042;59.120;37.904;2023-05-07T07:16:55;101156.50;;;7.91;45.67
78117;BME280;69042;59.120;37.904;2023-05-07T07:19:25;101157.53;;;7.80;45.38
78117;BME280;69042;59.120;37.904;2023-05-07T07:21:54;101146.34;;;7.73;45.49
78117;BME280;69042;59.120;37.904;2023-05-07T07:24:21;101154.22;;;7.68;45.32
78117;BME280;69042;59.120;37.904;2023-05-07T07:26:52;101152.53;;;7.63;44.87
78117;BME280;69042;59.120;37.904;2023-05-07T07:29:23;101149.16;;;7.59;45.35
78117;BME280;69042;59.120;37.904;2023-05-07T07:31:53;101148.25;;;7.62;45.19
78117;BME280;69042;59.120;37.904;2023-05-07T07:34:21;101142.97;;;7.68;45.43
78117;BME280;69042;59.120;37.904;2023-05-07T07:36:49;101143.63;;;7.81;45.44
78117;BME280;69042;59.120;37.904;2023-05-07T07:39:17;101142.53;;;7.97;45.26
78117;BME280;69042;59.120;37.904;2023-05-07T07:41:46;101135.44;;;8.08;44.66
78117;BME280;69042;59.120;37.904;2023-05-07T07:44:14;101143.09;;;8.18;44.48
78117;BME280;69042;59.120;37.904;2023-05-07T07:46:41;101136.84;;;8.28;44.35
78117;BME280;69042;59.120;37.904;2023-05-07T07:49:07;101141.03;;;8.38;44.68
78117;BME280;69042;59.120;37.904;2023-05-07T07:51:34;101140.00;;;8.48;44.29
78117;BME280;69042;59.120;37.904;2023-05-07T07:54:03;101164.94;;;8.63;44.19
78117;BME280;69042;59.120;37.904;2023-05-07T07:56:32;101166.50;;;8.73;44.21
78117;BME280;69042;59.120;37.904;2023-05-07T07:59:05;101139.66;;;8.70;43.65
78117;BME280;69042;59.120;37.904;2023-05-07T08:01:33;101138.91;;;8.63;43.80
78117;BME280;69042;59.120;37.904;2023-05-07T08:04:01;101141.44;;;8.66;44.26
78117;BME280;69042;59.120;37.904;2023-05-07T08:06:32;101149.91;;;8.79;44.01
78117;BME280;69042;59.120;37.904;2023-05-07T08:08:58;101147.97;;;8.89;43.83
78117;BME280;69042;59.120;37.904;2023-05-07T08:11:25;101150.38;;;9.01;43.94
78117;BME280;69042;59.120;37.904;2023-05-07T08:13:54;101164.06;;;9.12;42.81
78117;BME280;69042;59.120;37.904;2023-05-07T08:16:21;101156.38;;;9.05;42.78
78117;BME280;69042;59.120;37.904;2023-05-07T08:18:48;101160.88;;;8.96;42.90
78117;BME280;69042;59.120;37.904;2023-05-07T08:21:16;101167.03;;;8.94;43.03
78117;BME280;69042;59.120;37.904;2023-05-07T08:23:44;101147.91;;;8.93;42.68
78117;BME280;69042;59.120;37.904;2023-05-07T08:26:11;101152.94;;;9.03;42.87
78117;BME280;69042;59.120;37.904;2023-05-07T08:28:39;101176.91;;;9.23;42.53
78117;BME280;69042;59.120;37.904;2023-05-07T08:31:09;101162.69;;;9.38;41.97
78117;BME280;69042;59.120;37.904;2023-05-07T08:33:38;101172.28;;;9.36;42.64
78117;BME280;69042;59.120;37.904;2023-05-07T08:36:06;101168.94;;;9.29;42.98
78117;BME280;69042;59.120;37.904;2023-05-07T08:38:33;101164.72;;;9.24;43.44
78117;BME280;69042;59.120;37.904;2023-05-07T08:40:59;101155.84;;;9.32;43.54
78117;BME280;69042;59.120;37.904;2023-05-07T08:43:27;101151.19;;;9.47;43.19
78117;BME280;69042;59.120;37.904;2023-05-07T08:45:55;101154.63;;;9.49;42.18
78117;BME280;69042;59.120;37.904;2023-05-07T08:48:29;101182.72;;;9.36;41.80
78117;BME280;69042;59.120;37.904;2023-05-07T08:51:08;101166.63;;;9.14;41.72
78117;BME280;69042;59.120;37.904;2023-05-07T08:53:35;101163.50;;;8.96;41.85
78117;BME280;69042;59.120;37.904;2023-05-07T08:56:04;101162.84;;;8.85;42.00
78117;BME280;69042;59.120;37.904;2023-05-07T08:58:31;101175.81;;;8.88;42.14
78117;BME280;69042;59.120;37.904;2023-05-07T09:01:05;101172.38;;;8.85;41.16
78117;BME280;69042;59.120;37.904;2023-05-07T09:03:34;101178.59;;;8.78;41.13
78117;BME280;69042;59.120;37.904;2023-05-07T09:06:01;101167.41;;;8.71;41.38
78117;BME280;69042;59.120;37.904;2023-05-07T09:08:29;101164.88;;;8.68;41.16
78117;BME280;69042;59.120;37.904;2023-05-07T09:10:59;101163.88;;;8.73;41.84
78117;BME280;69042;59.120;37.904;2023-05-07T09:13:28;101154.84;;;8.94;41.41
78117;BME280;69042;59.120;37.904;2023-05-07T09:15:56;101162.16;;;9.21;41.90
78117;BME280;69042;59.120;37.904;2023-05-07T09:18:24;101159.88;;;9.47;40.86
78117;BME280;69042;59.120;37.904;2023-05-07T09:20:52;101165.72;;;9.60;40.62
78117;BME280;69042;59.120;37.904;2023-05-07T09:23:20;101153.47;;;9.64;40.24
78117;BME280;69042;59.120;37.904;2023-05-07T09:25:47;101165.50;;;9.71;39.42
78117;BME280;69042;59.120;37.904;2023-05-07T09:28:20;101165.44;;;9.72;39.49
78117;BME280;69042;59.120;37.904;2023-05-07T09:30:47;101174.28;;;9.67;39.04
78117;BME280;69042;59.120;37.904;2023-05-07T09:33:17;101167.28;;;9.69;39.06
78117;BME280;69042;59.120;37.904;2023-05-07T09:35:51;101175.16;;;9.66;39.00
78117;BME280;69042;59.120;37.904;2023-05-07T09:38:20;101174.66;;;9.48;38.98
78117;BME280;69042;59.120;37.904;2023-05-07T09:41:04;101162.88;;;9.29;38.93
78117;BME280;69042;59.120;37.904;2023-05-07T09:43:39;101175.28;;;9.16;39.16
78117;BME280;69042;59.120;37.904;2023-05-07T09:46:10;101171.97;;;9.08;39.67
78117;BME280;69042;59.120;37.904;2023-05-07T09:48:39;101165.09;;;9.04;39.60
78117;BME280;69042;59.120;37.904;2023-05-07T09:51:15;101170.31;;;9.02;39.73
78117;BME280;69042;59.120;37.904;2023-05-07T09:53:45;101165.94;;;9.04;40.46
78117;BME280;69042;59.120;37.904;2023-05-07T09:56:13;101172.81;;;9.08;40.56
78117;BME280;69042;59.120;37.904;2023-05-07T09:58:43;101166.41;;;9.26;40.45
78117;BME280;69042;59.120;37.904;2023-05-07T10:01:14;101159.84;;;9.50;40.50
78117;BME280;69042;59.120;37.904;2023-05-07T10:03:45;101165.34;;;9.77;40.47
78117;BME280;69042;59.120;37.904;2023-05-07T10:06:13;101156.94;;;10.03;39.90
78117;BME280;69042;59.120;37.904;2023-05-07T10:08:44;101161.00;;;10.15;39.60
78117;BME280;69042;59.120;37.904;2023-05-07T10:11:11;101153.75;;;10.28;39.63
78117;BME280;69042;59.120;37.904;2023-05-07T10:13:38;101157.97;;;10.33;38.37
78117;BME280;69042;59.120;37.904;2023-05-07T10:16:09;101174.47;;;10.35;38.29
78117;BME280;69042;59.120;37.904;2023-05-07T10:18:44;101170.84;;;10.43;38.28
78117;BME280;69042;59.120;37.904;2023-05-07T10:21:22;101174.00;;;10.55;38.05
78117;BME280;69042;59.120;37.904;2023-05-07T10:24:43;101170.28;;;10.64;37.78
78117;BME280;69042;59.120;37.904;2023-05-07T10:26:47;101166.91;;;10.60;37.61
78117;BME280;69042;59.120;37.904;2023-05-07T10:31:58;101184.22;;;10.27;37.08
78117;BME280;69042;59.120;37.904;2023-05-07T10:34:32;101176.03;;;10.05;36.59
78117;BME280;69042;59.120;37.904;2023-05-07T10:37:02;101171.22;;;9.87;36.65
78117;BME280;69042;59.120;37.904;2023-05-07T10:39:31;101188.91;;;9.74;36.77
78117;BME280;69042;59.120;37.904;2023-05-07T10:42:12;101183.13;;;9.59;37.08
78117;BME280;69042;59.120;37.904;2023-05-07T10:44:46;101172.63;;;9.61;36.88
78117;BME280;69042;59.120;37.904;2023-05-07T10:47:18;101180.41;;;9.64;37.42
78117;BME280;69042;59.120;37.904;2023-05-07T10:52:32;101162.78;;;10.13;38.52
78117;BME280;69042;59.120;37.904;2023-05-07T10:57:43;101165.81;;;11.02;36.01
78117;BME280;69042;59.120;37.904;2023-05-07T11:05:34;101184.19;;;10.66;34.45
78117;BME280;69042;59.120;37.904;2023-05-07T11:08:21;101187.22;;;10.49;34.11
78117;BME280;69042;59.120;37.904;2023-05-07T11:11:13;101190.69;;;10.50;34.37
78117;BME280;69042;59.120;37.904;2023-05-07T11:13:48;101193.00;;;10.62;34.23
78117;BME280;69042;59.120;37.904;2023-05-07T11:16:42;101190.34;;;10.63;34.53
78117;BME280;69042;59.120;37.904;2023-05-07T11:19:51;101194.91;;;10.55;33.37
78117;BME280;69042;59.120;37.904;2023-05-07T11:25:39;101201.19;;;10.48;33.87
78117;BME280;69042;59.120;37.904;2023-05-07T11:28:16;101202.00;;;10.50;35.23
78117;BME280;69042;59.120;37.904;2023-05-07T11:30:50;101207.72;;;10.65;35.17
78117;BME280;69042;59.120;37.904;2023-05-07T11:33:19;101203.03;;;10.79;34.81
78117;BME280;69042;59.120;37.904;2023-05-07T11:35:50;101196.25;;;11.04;35.28
78117;BME280;69042;59.120;37.904;2023-05-07T11:38:20;101192.69;;;11.70;35.83
78117;BME280;69042;59.120;37.904;2023-05-07T11:40:54;101172.75;;;13.02;36.05
78117;BME280;69042;59.120;37.904;2023-05-07T11:43:21;101164.53;;;14.70;36.21
78117;BME280;69042;59.120;37.904;2023-05-07T11:45:47;101165.97;;;16.32;35.13
78117;BME280;69042;59.120;37.904;2023-05-07T11:48:15;101181.16;;;16.98;31.21
78117;BME280;69042;59.120;37.904;2023-05-07T11:50:53;101184.16;;;16.55;29.29
78117;BME280;69042;59.120;37.904;2023-05-07T11:53:24;101187.75;;;15.80;29.42
78117;BME280;69042;59.120;37.904;2023-05-07T11:55:55;101186.56;;;15.08;29.50
78117;BME280;69042;59.120;37.904;2023-05-07T11:58:25;101192.56;;;14.49;29.33
78117;BME280;69042;59.120;37.904;2023-05-07T12:00:56;101188.25;;;14.04;29.47
78117;BME280;69042;59.120;37.904;2023-05-07T12:03:22;101197.28;;;13.97;30.63
78117;BME280;69042;59.120;37.904;2023-05-07T12:05:49;101194.03;;;14.78;31.52
78117;BME280;69042;59.120;37.904;2023-05-07T12:08:17;101192.34;;;15.76;31.13
78117;BME280;69042;59.120;37.904;2023-05-07T12:10:46;101193.44;;;16.09;29.47
78117;BME280;69042;59.120;37.904;2023-05-07T12:13:22;101195.53;;;15.83;28.50
78117;BME280;69042;59.120;37.904;2023-05-07T12:15:55;101191.91;;;15.27;28.58
78117;BME280;69042;59.120;37.904;2023-05-07T12:18:23;101194.06;;;14.76;28.94
78117;BME280;69042;59.120;37.904;2023-05-07T12:20:51;101194.66;;;14.41;28.61
78117;BME280;69042;59.120;37.904;2023-05-07T12:23:18;101208.06;;;14.12;28.92
78117;BME280;69042;59.120;37.904;2023-05-07T12:25:45;101201.06;;;13.89;28.95
78117;BME280;69042;59.120;37.904;2023-05-07T12:28:15;101177.25;;;13.70;29.43
78117;BME280;69042;59.120;37.904;2023-05-07T12:30:43;101216.50;;;13.51;29.18
78117;BME280;69042;59.120;37.904;2023-05-07T12:33:12;101203.25;;;13.31;29.06
78117;BME280;69042;59.120;37.904;2023-05-07T12:35:42;101195.59;;;13.23;29.43
78117;BME280;69042;59.120;37.904;2023-05-07T12:38:12;101199.28;;;13.66;30.02
78117;BME280;69042;59.120;37.904;2023-05-07T12:40:45;101190.00;;;14.90;30.41
78117;BME280;69042;59.120;37.904;2023-05-07T12:43:19;101185.84;;;15.84;28.82
78117;BME280;69042;59.120;37.904;2023-05-07T12:45:50;101186.19;;;15.76;27.91
78117;BME280;69042;59.120;37.904;2023-05-07T12:48:17;101191.47;;;15.36;27.79
78117;BME280;69042;59.120;37.904;2023-05-07T12:50:45;101193.38;;;14.93;27.73
78117;BME280;69042;59.120;37.904;2023-05-07T12:53:12;101199.22;;;14.59;27.76
78117;BME280;69042;59.120;37.904;2023-05-07T12:55:43;101195.28;;;14.25;27.81
78117;BME280;69042;59.120;37.904;2023-05-07T13:00:44;101197.88;;;13.81;28.37
78117;BME280;69042;59.120;37.904;2023-05-07T13:03:30;101205.13;;;13.74;28.25
78117;BME280;69042;59.120;37.904;2023-05-07T13:06:03;101204.56;;;13.66;28.69
78117;BME280;69042;59.120;37.904;2023-05-07T13:08:34;101190.63;;;14.10;29.67
78117;BME280;69042;59.120;37.904;2023-05-07T13:11:04;101193.59;;;15.28;29.84
78117;BME280;69042;59.120;37.904;2023-05-07T13:13:33;101198.94;;;16.40;29.29
78117;BME280;69042;59.120;37.904;2023-05-07T13:16:00;101187.31;;;17.32;29.08